sensor_id;sensor_type;location;lat;lon;timestamp;P1;durP1;ratioP1;P2;durP2;ratioP2
10761;SDS011;5433;50.862;4.320;2023-08-07T00:00:11;7.05;;;2.47;;
10761;SDS011;5433;50.862;4.320;2023-08-07T00:02:37;8.68;;;3.00;;
10761;SDS011;5433;50.862;4.320;2023-08-07T00:05:04;6.05;;;2.40;;
10761;SDS011;5433;50.862;4.320;2023-08-07T00:07:30;7.93;;;2.60;;
10761;SDS011;5433;50.862;4.320;2023-08-07T00:09:56;6.05;;;2.65;;
10761;SDS011;5433;50.862;4.320;2023-08-07T00:12:22;6.85;;;2.38;;
10761;SDS011;5433;50.862;4.320;2023-08-07T00:14:49;5.97;;;2.58;;
10761;SDS011;5433;50.862;4.320;2023-08-07T00:17:16;7.45;;;3.05;;
10761;SDS011;5433;50.862;4.320;2023-08-07T00:19:42;6.45;;;2.33;;
10761;SDS011;5433;50.862;4.320;2023-08-07T00:22:08;6.35;;;2.63;;
10761;SDS011;5433;50.862;4.320;2023-08-07T00:24:34;7.18;;;2.67;;
10761;SDS011;5433;50.862;4.320;2023-08-07T00:27:00;9.00;;;3.03;;
10761;SDS011;5433;50.862;4.320;2023-08-07T00:29:26;5.20;;;2.60;;
10761;SDS011;5433;50.862;4.320;2023-08-07T00:31:52;6.05;;;2.72;;
10761;SDS011;5433;50.862;4.320;2023-08-07T00:34:18;6.95;;;2.88;;
10761;SDS011;5433;50.862;4.320;2023-08-07T00:36:44;9.20;;;2.70;;
10761;SDS011;5433;50.862;4.320;2023-08-07T00:39:10;8.40;;;2.88;;
10761;SDS011;5433;50.862;4.320;2023-08-07T00:41:36;6.03;;;2.70;;
10761;SDS011;5433;50.862;4.320;2023-08-07T00:44:02;6.38;;;2.60;;
10761;SDS011;5433;50.862;4.320;2023-08-07T00:46:28;4.18;;;2.83;;
10761;SDS011;5433;50.862;4.320;2023-08-07T00:48:55;6.72;;;2.58;;
10761;SDS011;5433;50.862;4.320;2023-08-07T00:51:21;4.65;;;2.63;;
10761;SDS011;5433;50.862;4.320;2023-08-07T00:53:48;8.27;;;3.00;;
10761;SDS011;5433;50.862;4.320;2023-08-07T00:56:14;5.57;;;2.85;;
10761;SDS011;5433;50.862;4.320;2023-08-07T00:58:41;8.60;;;2.63;;
10761;SDS011;5433;50.862;4.320;2023-08-07T01:01:07;4.15;;;2.30;;
10761;SDS011;5433;50.862;4.320;2023-08-07T01:03:33;6.70;;;2.92;;
10761;SDS011;5433;50.862;4.320;2023-08-07T01:05:59;7.65;;;2.40;;
10761;SDS011;5433;50.862;4.320;2023-08-07T01:08:25;4.93;;;2.28;;
10761;SDS011;5433;50.862;4.320;2023-08-07T01:16:07;5.25;;;2.60;;
10761;SDS011;5433;50.862;4.320;2023-08-07T01:18:35;6.30;;;2.30;;
10761;SDS011;5433;50.862;4.320;2023-08-07T01:21:02;5.10;;;2.33;;
10761;SDS011;5433;50.862;4.320;2023-08-07T01:23:28;6.38;;;2.50;;
10761;SDS011;5433;50.862;4.320;2023-08-07T01:25:54;8.65;;;2.58;;
10761;SDS011;5433;50.862;4.320;2023-08-07T01:28:27;6.00;;;2.28;;
10761;SDS011;5433;50.862;4.320;2023-08-07T01:30:59;7.28;;;2.50;;
10761;SDS011;5433;50.862;4.320;2023-08-07T01:33:35;7.07;;;2.60;;
10761;SDS011;5433;50.862;4.320;2023-08-07T01:36:05;7.28;;;2.40;;
10761;SDS011;5433;50.862;4.320;2023-08-07T01:38:34;6.90;;;2.58;;
10761;SDS011;5433;50.862;4.320;2023-08-07T01:41:00;5.75;;;2.20;;
10761;SDS011;5433;50.862;4.320;2023-08-07T01:43:26;8.52;;;2.53;;
10761;SDS011;5433;50.862;4.320;2023-08-07T01:45:52;5.63;;;2.47;;
10761;SDS011;5433;50.862;4.320;2023-08-07T01:48:18;5.43;;;2.70;;
10761;SDS011;5433;50.862;4.320;2023-08-07T01:50:44;4.68;;;2.60;;
10761;SDS011;5433;50.862;4.320;2023-08-07T01:53:10;7.00;;;2.70;;
10761;SDS011;5433;50.862;4.320;2023-08-07T01:55:36;6.10;;;2.45;;
10761;SDS011;5433;50.862;4.320;2023-08-07T01:58:02;6.60;;;2.30;;
10761;SDS011;5433;50.862;4.320;2023-08-07T02:00:28;4.47;;;1.98;;
10761;SDS011;5433;50.862;4.320;2023-08-07T02:02:55;9.90;;;2.25;;
10761;SDS011;5433;50.862;4.320;2023-08-07T02:05:21;3.50;;;2.55;;
10761;SDS011;5433;50.862;4.320;2023-08-07T02:07:47;6.00;;;2.20;;
10761;SDS011;5433;50.862;4.320;2023-08-07T02:10:13;6.50;;;1.90;;
10761;SDS011;5433;50.862;4.320;2023-08-07T02:12:39;7.43;;;2.55;;
10761;SDS011;5433;50.862;4.320;2023-08-07T02:15:05;4.18;;;2.40;;
10761;SDS011;5433;50.862;4.320;2023-08-07T02:17:31;5.47;;;2.33;;
10761;SDS011;5433;50.862;4.320;2023-08-07T02:19:57;5.30;;;2.17;;
10761;SDS011;5433;50.862;4.320;2023-08-07T02:22:24;7.82;;;2.28;;
10761;SDS011;5433;50.862;4.320;2023-08-07T02:24:52;6.63;;;2.10;;
10761;SDS011;5433;50.862;4.320;2023-08-07T02:27:18;4.80;;;2.30;;
10761;SDS011;5433;50.862;4.320;2023-08-07T02:29:44;3.67;;;2.10;;
10761;SDS011;5433;50.862;4.320;2023-08-07T02:32:10;5.40;;;2.03;;
10761;SDS011;5433;50.862;4.320;2023-08-07T02:34:36;5.60;;;2.30;;
10761;SDS011;5433;50.862;4.320;2023-08-07T02:37:02;4.03;;;2.00;;
10761;SDS011;5433;50.862;4.320;2023-08-07T02:39:28;7.45;;;2.40;;
10761;SDS011;5433;50.862;4.320;2023-08-07T02:41:54;5.90;;;2.17;;
10761;SDS011;5433;50.862;4.320;2023-08-07T02:44:20;5.15;;;2.10;;
10761;SDS011;5433;50.862;4.320;2023-08-07T02:46:46;4.15;;;2.20;;
10761;SDS011;5433;50.862;4.320;2023-08-07T02:49:12;5.30;;;2.08;;
10761;SDS011;5433;50.862;4.320;2023-08-07T02:51:38;4.63;;;2.35;;
10761;SDS011;5433;50.862;4.320;2023-08-07T02:54:04;3.97;;;2.00;;
10761;SDS011;5433;50.862;4.320;2023-08-07T02:56:30;5.47;;;2.00;;
10761;SDS011;5433;50.862;4.320;2023-08-07T02:58:56;6.25;;;2.33;;
10761;SDS011;5433;50.862;4.320;2023-08-07T03:01:23;5.00;;;1.77;;
10761;SDS011;5433;50.862;4.320;2023-08-07T03:03:49;5.85;;;2.20;;
10761;SDS011;5433;50.862;4.320;2023-08-07T03:06:15;6.00;;;2.33;;
10761;SDS011;5433;50.862;4.320;2023-08-07T03:08:41;5.15;;;1.92;;
10761;SDS011;5433;50.862;4.320;2023-08-07T03:11:07;6.18;;;2.20;;
10761;SDS011;5433;50.862;4.320;2023-08-07T03:13:33;6.15;;;2.08;;
10761;SDS011;5433;50.862;4.320;2023-08-07T03:16:00;4.25;;;1.92;;
10761;SDS011;5433;50.862;4.320;2023-08-07T03:18:26;4.30;;;2.22;;
10761;SDS011;5433;50.862;4.320;2023-08-07T03:20:52;4.65;;;2.10;;
10761;SDS011;5433;50.862;4.320;2023-08-07T03:23:18;4.78;;;2.22;;
10761;SDS011;5433;50.862;4.320;2023-08-07T03:25:44;5.28;;;2.10;;
10761;SDS011;5433;50.862;4.320;2023-08-07T03:28:10;5.50;;;2.20;;
10761;SDS011;5433;50.862;4.320;2023-08-07T03:30:36;7.15;;;2.55;;
10761;SDS011;5433;50.862;4.320;2023-08-07T03:33:03;5.40;;;2.15;;
10761;SDS011;5433;50.862;4.320;2023-08-07T03:35:29;3.50;;;2.25;;
10761;SDS011;5433;50.862;4.320;2023-08-07T03:37:55;6.05;;;2.50;;
10761;SDS011;5433;50.862;4.320;2023-08-07T03:40:21;7.43;;;2.20;;
10761;SDS011;5433;50.862;4.320;2023-08-07T03:42:47;6.43;;;2.15;;
10761;SDS011;5433;50.862;4.320;2023-08-07T03:45:13;3.50;;;2.17;;
10761;SDS011;5433;50.862;4.320;2023-08-07T03:47:39;5.80;;;2.40;;
10761;SDS011;5433;50.862;4.320;2023-08-07T03:50:06;6.63;;;2.47;;
10761;SDS011;5433;50.862;4.320;2023-08-07T03:52:32;3.08;;;2.10;;
10761;SDS011;5433;50.862;4.320;2023-08-07T03:54:58;3.38;;;2.15;;
10761;SDS011;5433;50.862;4.320;2023-08-07T03:57:24;5.55;;;2.45;;
10761;SDS011;5433;50.862;4.320;2023-08-07T03:59:50;3.38;;;2.40;;
10761;SDS011;5433;50.862;4.320;2023-08-07T04:02:16;4.97;;;2.45;;
10761;SDS011;5433;50.862;4.320;2023-08-07T04:04:42;5.68;;;2.25;;
10761;SDS011;5433;50.862;4.320;2023-08-07T04:07:08;3.55;;;2.30;;
10761;SDS011;5433;50.862;4.320;2023-08-07T04:09:34;8.18;;;2.60;;
10761;SDS011;5433;50.862;4.320;2023-08-07T04:12:00;5.78;;;2.55;;
10761;SDS011;5433;50.862;4.320;2023-08-07T04:14:27;8.90;;;2.33;;
10761;SDS011;5433;50.862;4.320;2023-08-07T04:16:53;7.00;;;2.50;;
10761;SDS011;5433;50.862;4.320;2023-08-07T04:19:20;6.07;;;2.55;;
10761;SDS011;5433;50.862;4.320;2023-08-07T04:21:46;9.95;;;2.70;;
10761;SDS011;5433;50.862;4.320;2023-08-07T04:24:12;4.80;;;2.42;;
10761;SDS011;5433;50.862;4.320;2023-08-07T04:26:38;4.50;;;2.58;;
10761;SDS011;5433;50.862;4.320;2023-08-07T04:29:04;6.30;;;2.42;;
10761;SDS011;5433;50.862;4.320;2023-08-07T04:31:30;4.57;;;2.60;;
10761;SDS011;5433;50.862;4.320;2023-08-07T04:33:56;4.78;;;2.55;;
10761;SDS011;5433;50.862;4.320;2023-08-07T04:36:23;5.75;;;2.50;;
10761;SDS011;5433;50.862;4.320;2023-08-07T04:38:49;6.90;;;2.58;;
10761;SDS011;5433;50.862;4.320;2023-08-07T04:41:15;8.25;;;2.63;;
10761;SDS011;5433;50.862;4.320;2023-08-07T04:43:41;5.28;;;2.40;;
10761;SDS011;5433;50.862;4.320;2023-08-07T04:46:08;6.47;;;2.33;;
10761;SDS011;5433;50.862;4.320;2023-08-07T04:48:34;5.20;;;2.47;;
10761;SDS011;5433;50.862;4.320;2023-08-07T04:51:00;5.85;;;2.30;;
10761;SDS011;5433;50.862;4.320;2023-08-07T04:53:26;6.00;;;2.40;;
10761;SDS011;5433;50.862;4.320;2023-08-07T04:55:52;4.80;;;2.35;;
10761;SDS011;5433;50.862;4.320;2023-08-07T04:58:18;5.63;;;2.70;;
10761;SDS011;5433;50.862;4.320;2023-08-07T05:00:44;6.25;;;2.60;;
10761;SDS011;5433;50.862;4.320;2023-08-07T05:03:10;5.55;;;2.40;;
10761;SDS011;5433;50.862;4.320;2023-08-07T05:05:36;7.07;;;2.65;;
10761;SDS011;5433;50.862;4.320;2023-08-07T05:08:02;8.43;;;2.55;;
10761;SDS011;5433;50.862;4.320;2023-08-07T05:10:28;5.63;;;2.10;;
10761;SDS011;5433;50.862;4.320;2023-08-07T05:12:54;4.47;;;2.38;;
10761;SDS011;5433;50.862;4.320;2023-08-07T05:15:21;7.75;;;2.63;;
10761;SDS011;5433;50.862;4.320;2023-08-07T05:17:48;5.82;;;2.50;;
10761;SDS011;5433;50.862;4.320;2023-08-07T05:20:14;8.57;;;2.50;;
10761;SDS011;5433;50.862;4.320;2023-08-07T05:22:40;8.27;;;2.90;;
10761;SDS011;5433;50.862;4.320;2023-08-07T05:25:06;8.15;;;2.88;;
10761;SDS011;5433;50.862;4.320;2023-08-07T05:27:32;4.65;;;2.42;;
10761;SDS011;5433;50.862;4.320;2023-08-07T05:29:59;9.73;;;2.70;;
10761;SDS011;5433;50.862;4.320;2023-08-07T05:32:25;6.07;;;2.72;;
10761;SDS011;5433;50.862;4.320;2023-08-07T05:34:51;4.57;;;2.35;;
10761;SDS011;5433;50.862;4.320;2023-08-07T05:37:17;5.70;;;2.80;;
10761;SDS011;5433;50.862;4.320;2023-08-07T05:39:43;7.25;;;2.40;;
10761;SDS011;5433;50.862;4.320;2023-08-07T05:42:09;7.28;;;2.80;;
10761;SDS011;5433;50.862;4.320;2023-08-07T05:44:35;5.10;;;2.78;;
10761;SDS011;5433;50.862;4.320;2023-08-07T05:47:01;8.32;;;3.25;;
10761;SDS011;5433;50.862;4.320;2023-08-07T05:49:30;5.38;;;2.47;;
10761;SDS011;5433;50.862;4.320;2023-08-07T05:51:58;5.40;;;2.40;;
10761;SDS011;5433;50.862;4.320;2023-08-07T05:54:24;5.97;;;2.65;;
10761;SDS011;5433;50.862;4.320;2023-08-07T05:56:50;8.00;;;2.90;;
10761;SDS011;5433;50.862;4.320;2023-08-07T05:59:16;6.88;;;2.65;;
10761;SDS011;5433;50.862;4.320;2023-08-07T06:01:42;7.75;;;2.72;;
10761;SDS011;5433;50.862;4.320;2023-08-07T06:04:08;7.72;;;2.90;;
10761;SDS011;5433;50.862;4.320;2023-08-07T06:06:34;7.55;;;2.72;;
10761;SDS011;5433;50.862;4.320;2023-08-07T06:09:01;6.00;;;2.50;;
10761;SDS011;5433;50.862;4.320;2023-08-07T06:11:31;7.82;;;2.63;;
10761;SDS011;5433;50.862;4.320;2023-08-07T06:13:57;8.48;;;2.67;;
10761;SDS011;5433;50.862;4.320;2023-08-07T06:16:24;6.78;;;2.53;;
10761;SDS011;5433;50.862;4.320;2023-08-07T06:18:50;5.18;;;2.55;;
10761;SDS011;5433;50.862;4.320;2023-08-07T06:21:16;7.72;;;2.72;;
10761;SDS011;5433;50.862;4.320;2023-08-07T06:23:42;7.10;;;2.50;;
10761;SDS011;5433;50.862;4.320;2023-08-07T06:26:08;8.27;;;3.00;;
10761;SDS011;5433;50.862;4.320;2023-08-07T06:28:34;5.47;;;2.60;;
10761;SDS011;5433;50.862;4.320;2023-08-07T06:31:04;6.85;;;2.75;;
10761;SDS011;5433;50.862;4.320;2023-08-07T06:33:31;8.20;;;2.60;;
10761;SDS011;5433;50.862;4.320;2023-08-07T06:35:58;8.63;;;2.70;;
10761;SDS011;5433;50.862;4.320;2023-08-07T06:38:24;8.45;;;2.65;;
10761;SDS011;5433;50.862;4.320;2023-08-07T06:40:50;6.90;;;2.63;;
10761;SDS011;5433;50.862;4.320;2023-08-07T06:43:16;5.65;;;2.50;;
10761;SDS011;5433;50.862;4.320;2023-08-07T06:45:43;5.47;;;2.88;;
10761;SDS011;5433;50.862;4.320;2023-08-07T06:48:09;7.38;;;2.58;;
10761;SDS011;5433;50.862;4.320;2023-08-07T06:50:35;5.82;;;2.55;;
10761;SDS011;5433;50.862;4.320;2023-08-07T06:53:01;7.78;;;2.75;;
10761;SDS011;5433;50.862;4.320;2023-08-07T06:55:27;8.32;;;2.60;;
10761;SDS011;5433;50.862;4.320;2023-08-07T06:57:53;7.13;;;2.60;;
10761;SDS011;5433;50.862;4.320;2023-08-07T07:00:19;6.38;;;2.75;;
10761;SDS011;5433;50.862;4.320;2023-08-07T07:02:45;7.03;;;2.80;;
10761;SDS011;5433;50.862;4.320;2023-08-07T07:05:11;8.27;;;2.80;;
10761;SDS011;5433;50.862;4.320;2023-08-07T07:07:38;7.63;;;2.90;;
10761;SDS011;5433;50.862;4.320;2023-08-07T07:10:04;7.10;;;2.60;;
10761;SDS011;5433;50.862;4.320;2023-08-07T07:12:30;6.65;;;2.88;;
10761;SDS011;5433;50.862;4.320;2023-08-07T07:14:56;8.05;;;2.70;;
10761;SDS011;5433;50.862;4.320;2023-08-07T07:17:22;4.57;;;2.60;;
10761;SDS011;5433;50.862;4.320;2023-08-07T07:19:48;7.15;;;2.60;;
10761;SDS011;5433;50.862;4.320;2023-08-07T07:22:14;7.35;;;2.97;;
10761;SDS011;5433;50.862;4.320;2023-08-07T07:24:40;5.80;;;2.58;;
10761;SDS011;5433;50.862;4.320;2023-08-07T07:27:06;4.85;;;2.60;;
10761;SDS011;5433;50.862;4.320;2023-08-07T07:29:32;7.05;;;2.50;;
10761;SDS011;5433;50.862;4.320;2023-08-07T07:31:58;6.30;;;2.75;;
10761;SDS011;5433;50.862;4.320;2023-08-07T07:34:24;5.65;;;2.55;;
10761;SDS011;5433;50.862;4.320;2023-08-07T07:36:50;4.80;;;2.40;;
10761;SDS011;5433;50.862;4.320;2023-08-07T07:39:18;5.00;;;2.30;;
10761;SDS011;5433;50.862;4.320;2023-08-07T07:47:51;5.38;;;2.33;;
10761;SDS011;5433;50.862;4.320;2023-08-07T07:50:17;6.68;;;2.30;;
10761;SDS011;5433;50.862;4.320;2023-08-07T07:52:43;4.68;;;2.38;;
10761;SDS011;5433;50.862;4.320;2023-08-07T07:55:10;4.68;;;2.42;;
10761;SDS011;5433;50.862;4.320;2023-08-07T07:57:37;5.03;;;2.38;;
10761;SDS011;5433;50.862;4.320;2023-08-07T08:00:03;5.95;;;1.90;;
10761;SDS011;5433;50.862;4.320;2023-08-07T08:02:32;6.05;;;2.28;;
10761;SDS011;5433;50.862;4.320;2023-08-07T08:04:58;4.18;;;2.05;;
10761;SDS011;5433;50.862;4.320;2023-08-07T08:07:26;3.65;;;2.00;;
10761;SDS011;5433;50.862;4.320;2023-08-07T08:09:52;7.30;;;2.30;;
10761;SDS011;5433;50.862;4.320;2023-08-07T08:12:17;4.80;;;1.90;;
10761;SDS011;5433;50.862;4.320;2023-08-07T08:14:44;3.65;;;1.95;;
10761;SDS011;5433;50.862;4.320;2023-08-07T08:17:09;6.88;;;2.00;;
10761;SDS011;5433;50.862;4.320;2023-08-07T08:19:35;6.43;;;2.05;;
10761;SDS011;5433;50.862;4.320;2023-08-07T08:22:01;6.25;;;2.10;;
10761;SDS011;5433;50.862;4.320;2023-08-07T08:24:27;5.40;;;2.08;;
10761;SDS011;5433;50.862;4.320;2023-08-07T08:26:54;4.38;;;2.00;;
10761;SDS011;5433;50.862;4.320;2023-08-07T08:29:20;3.83;;;1.85;;
10761;SDS011;5433;50.862;4.320;2023-08-07T08:31:46;2.88;;;1.95;;
10761;SDS011;5433;50.862;4.320;2023-08-07T08:34:12;5.50;;;2.13;;
10761;SDS011;5433;50.862;4.320;2023-08-07T08:39:41;5.65;;;1.90;;
10761;SDS011;5433;50.862;4.320;2023-08-07T08:42:08;3.97;;;2.15;;
10761;SDS011;5433;50.862;4.320;2023-08-07T08:44:36;4.15;;;2.00;;
10761;SDS011;5433;50.862;4.320;2023-08-07T08:47:04;3.30;;;1.95;;
10761;SDS011;5433;50.862;4.320;2023-08-07T08:49:33;7.53;;;1.88;;
10761;SDS011;5433;50.862;4.320;2023-08-07T08:52:01;4.50;;;1.83;;
10761;SDS011;5433;50.862;4.320;2023-08-07T08:54:28;3.88;;;2.10;;
10761;SDS011;5433;50.862;4.320;2023-08-07T08:56:55;4.38;;;2.03;;
10761;SDS011;5433;50.862;4.320;2023-08-07T08:59:21;4.80;;;1.70;;
10761;SDS011;5433;50.862;4.320;2023-08-07T09:01:48;3.28;;;1.90;;
10761;SDS011;5433;50.862;4.320;2023-08-07T09:04:17;5.50;;;1.92;;
10761;SDS011;5433;50.862;4.320;2023-08-07T09:06:43;4.05;;;2.00;;
10761;SDS011;5433;50.862;4.320;2023-08-07T09:09:10;5.50;;;2.10;;
10761;SDS011;5433;50.862;4.320;2023-08-07T09:11:38;3.47;;;2.00;;
10761;SDS011;5433;50.862;4.320;2023-08-07T09:14:04;3.35;;;1.70;;
10761;SDS011;5433;50.862;4.320;2023-08-07T09:16:31;4.45;;;1.98;;
10761;SDS011;5433;50.862;4.320;2023-08-07T09:18:57;3.65;;;2.10;;
10761;SDS011;5433;50.862;4.320;2023-08-07T09:21:23;2.63;;;1.80;;
10761;SDS011;5433;50.862;4.320;2023-08-07T09:23:49;4.50;;;1.90;;
10761;SDS011;5433;50.862;4.320;2023-08-07T09:26:16;3.25;;;1.65;;
10761;SDS011;5433;50.862;4.320;2023-08-07T09:28:47;3.83;;;2.00;;
10761;SDS011;5433;50.862;4.320;2023-08-07T09:31:14;3.80;;;1.83;;
10761;SDS011;5433;50.862;4.320;2023-08-07T09:33:40;2.10;;;1.75;;
10761;SDS011;5433;50.862;4.320;2023-08-07T09:36:06;2.78;;;1.75;;
10761;SDS011;5433;50.862;4.320;2023-08-07T09:38:32;5.47;;;1.80;;
10761;SDS011;5433;50.862;4.320;2023-08-07T09:40:59;4.00;;;2.10;;
10761;SDS011;5433;50.862;4.320;2023-08-07T09:43:25;4.30;;;1.98;;
10761;SDS011;5433;50.862;4.320;2023-08-07T09:45:51;9.40;;;2.00;;
10761;SDS011;5433;50.862;4.320;2023-08-07T09:48:24;2.80;;;1.70;;
10761;SDS011;5433;50.862;4.320;2023-08-07T09:50:52;1.98;;;1.60;;
10761;SDS011;5433;50.862;4.320;2023-08-07T09:53:26;3.83;;;1.70;;
10761;SDS011;5433;50.862;4.320;2023-08-07T09:55:55;2.85;;;1.83;;
10761;SDS011;5433;50.862;4.320;2023-08-07T09:58:22;2.95;;;1.70;;
10761;SDS011;5433;50.862;4.320;2023-08-07T10:00:49;3.83;;;1.50;;
10761;SDS011;5433;50.862;4.320;2023-08-07T10:03:15;2.90;;;1.52;;
10761;SDS011;5433;50.862;4.320;2023-08-07T10:05:44;4.32;;;1.83;;
10761;SDS011;5433;50.862;4.320;2023-08-07T10:08:10;3.40;;;1.50;;
10761;SDS011;5433;50.862;4.320;2023-08-07T10:10:37;3.00;;;1.55;;
10761;SDS011;5433;50.862;4.320;2023-08-07T10:13:03;3.40;;;1.60;;
10761;SDS011;5433;50.862;4.320;2023-08-07T10:15:31;3.83;;;1.67;;
10761;SDS011;5433;50.862;4.320;2023-08-07T10:17:57;4.57;;;1.70;;
10761;SDS011;5433;50.862;4.320;2023-08-07T10:20:27;1.50;;;1.40;;
10761;SDS011;5433;50.862;4.320;2023-08-07T10:22:55;3.30;;;1.60;;
10761;SDS011;5433;50.862;4.320;2023-08-07T10:25:22;2.63;;;1.40;;
10761;SDS011;5433;50.862;4.320;2023-08-07T10:27:50;2.55;;;1.55;;
10761;SDS011;5433;50.862;4.320;2023-08-07T10:30:18;3.42;;;1.45;;
10761;SDS011;5433;50.862;4.320;2023-08-07T10:32:45;1.85;;;1.50;;
10761;SDS011;5433;50.862;4.320;2023-08-07T10:35:24;2.45;;;1.50;;
10761;SDS011;5433;50.862;4.320;2023-08-07T10:37:51;2.70;;;1.60;;
10761;SDS011;5433;50.862;4.320;2023-08-07T10:40:20;3.47;;;1.80;;
10761;SDS011;5433;50.862;4.320;2023-08-07T10:43:01;2.03;;;1.50;;
10761;SDS011;5433;50.862;4.320;2023-08-07T10:45:37;2.35;;;1.42;;
10761;SDS011;5433;50.862;4.320;2023-08-07T10:48:13;3.13;;;1.42;;
10761;SDS011;5433;50.862;4.320;2023-08-07T10:53:18;2.42;;;1.45;;
10761;SDS011;5433;50.862;4.320;2023-08-07T10:55:46;1.92;;;1.52;;
10761;SDS011;5433;50.862;4.320;2023-08-07T11:03:49;3.08;;;1.60;;
10761;SDS011;5433;50.862;4.320;2023-08-07T11:06:16;2.45;;;1.70;;
10761;SDS011;5433;50.862;4.320;2023-08-07T11:08:42;4.90;;;1.95;;
10761;SDS011;5433;50.862;4.320;2023-08-07T11:11:08;2.28;;;1.50;;
10761;SDS011;5433;50.862;4.320;2023-08-07T11:13:34;2.08;;;1.60;;
10761;SDS011;5433;50.862;4.320;2023-08-07T11:16:01;2.30;;;1.60;;
10761;SDS011;5433;50.862;4.320;2023-08-07T11:18:28;2.05;;;1.70;;
10761;SDS011;5433;50.862;4.320;2023-08-07T11:20:56;3.17;;;1.60;;
10761;SDS011;5433;50.862;4.320;2023-08-07T11:23:25;1.95;;;1.63;;
10761;SDS011;5433;50.862;4.320;2023-08-07T11:25:52;2.78;;;1.70;;
10761;SDS011;5433;50.862;4.320;2023-08-07T11:28:22;2.22;;;1.60;;
10761;SDS011;5433;50.862;4.320;2023-08-07T11:30:50;2.35;;;1.50;;
10761;SDS011;5433;50.862;4.320;2023-08-07T11:33:19;2.45;;;1.50;;
10761;SDS011;5433;50.862;4.320;2023-08-07T11:35:46;1.55;;;1.45;;
10761;SDS011;5433;50.862;4.320;2023-08-07T11:38:12;1.88;;;1.58;;
10761;SDS011;5433;50.862;4.320;2023-08-07T11:40:39;1.63;;;1.52;;
10761;SDS011;5433;50.862;4.320;2023-08-07T11:43:05;1.77;;;1.50;;
10761;SDS011;5433;50.862;4.320;2023-08-07T11:45:31;3.03;;;1.58;;
10761;SDS011;5433;50.862;4.320;2023-08-07T11:47:57;1.80;;;1.45;;
10761;SDS011;5433;50.862;4.320;2023-08-07T11:50:24;2.10;;;1.40;;
10761;SDS011;5433;50.862;4.320;2023-08-07T11:52:50;1.88;;;1.50;;
10761;SDS011;5433;50.862;4.320;2023-08-07T11:55:17;2.35;;;1.58;;
10761;SDS011;5433;50.862;4.320;2023-08-07T11:57:45;6.43;;;1.60;;
10761;SDS011;5433;50.862;4.320;2023-08-07T12:00:12;4.05;;;1.60;;
10761;SDS011;5433;50.862;4.320;2023-08-07T12:02:44;3.30;;;1.25;;
10761;SDS011;5433;50.862;4.320;2023-08-07T12:05:10;1.85;;;1.20;;
10761;SDS011;5433;50.862;4.320;2023-08-07T12:07:37;2.50;;;1.33;;
10761;SDS011;5433;50.862;4.320;2023-08-07T12:10:06;2.28;;;1.27;;
10761;SDS011;5433;50.862;4.320;2023-08-07T12:12:33;2.00;;;1.40;;
10761;SDS011;5433;50.862;4.320;2023-08-07T12:14:59;1.63;;;1.50;;
10761;SDS011;5433;50.862;4.320;2023-08-07T12:17:25;3.28;;;1.40;;
10761;SDS011;5433;50.862;4.320;2023-08-07T12:19:51;1.77;;;1.27;;
10761;SDS011;5433;50.862;4.320;2023-08-07T12:22:19;1.52;;;1.40;;
10761;SDS011;5433;50.862;4.320;2023-08-07T12:24:46;1.77;;;1.30;;
10761;SDS011;5433;50.862;4.320;2023-08-07T12:27:12;2.08;;;1.38;;
10761;SDS011;5433;50.862;4.320;2023-08-07T12:29:38;2.10;;;1.20;;
10761;SDS011;5433;50.862;4.320;2023-08-07T12:32:04;3.25;;;1.40;;
10761;SDS011;5433;50.862;4.320;2023-08-07T12:34:31;2.20;;;1.40;;
10761;SDS011;5433;50.862;4.320;2023-08-07T12:36:57;2.30;;;1.52;;
10761;SDS011;5433;50.862;4.320;2023-08-07T12:39:23;3.00;;;1.40;;
10761;SDS011;5433;50.862;4.320;2023-08-07T12:41:49;2.15;;;1.23;;
10761;SDS011;5433;50.862;4.320;2023-08-07T12:44:16;2.00;;;1.50;;
10761;SDS011;5433;50.862;4.320;2023-08-07T12:46:42;1.40;;;1.30;;
10761;SDS011;5433;50.862;4.320;2023-08-07T12:49:08;1.33;;;1.23;;
10761;SDS011;5433;50.862;4.320;2023-08-07T12:51:35;2.17;;;1.30;;
10761;SDS011;5433;50.862;4.320;2023-08-07T12:54:01;2.00;;;1.20;;
10761;SDS011;5433;50.862;4.320;2023-08-07T12:56:27;1.35;;;1.10;;
10761;SDS011;5433;50.862;4.320;2023-08-07T12:58:55;1.30;;;1.00;;
10761;SDS011;5433;50.862;4.320;2023-08-07T13:01:21;1.50;;;1.20;;
10761;SDS011;5433;50.862;4.320;2023-08-07T13:03:47;1.95;;;1.02;;
10761;SDS011;5433;50.862;4.320;2023-08-07T13:06:13;1.05;;;0.82;;
10761;SDS011;5433;50.862;4.320;2023-08-07T13:08:39;1.52;;;1.00;;
10761;SDS011;5433;50.862;4.320;2023-08-07T13:11:06;2.03;;;1.00;;
10761;SDS011;5433;50.862;4.320;2023-08-07T13:13:32;1.20;;;1.10;;
10761;SDS011;5433;50.862;4.320;2023-08-07T13:15:58;2.45;;;1.13;;
10761;SDS011;5433;50.862;4.320;2023-08-07T13:18:24;1.13;;;0.90;;
10761;SDS011;5433;50.862;4.320;2023-08-07T13:20:50;2.63;;;1.00;;
10761;SDS011;5433;50.862;4.320;2023-08-07T13:23:16;4.07;;;0.98;;
10761;SDS011;5433;50.862;4.320;2023-08-07T13:25:42;1.58;;;0.88;;
10761;SDS011;5433;50.862;4.320;2023-08-07T13:28:10;2.42;;;0.80;;
10761;SDS011;5433;50.862;4.320;2023-08-07T13:30:37;1.08;;;0.98;;
10761;SDS011;5433;50.862;4.320;2023-08-07T13:33:16;1.58;;;0.73;;
10761;SDS011;5433;50.862;4.320;2023-08-07T13:38:53;1.00;;;0.80;;
10761;SDS011;5433;50.862;4.320;2023-08-07T13:41:29;1.17;;;0.93;;
10761;SDS011;5433;50.862;4.320;2023-08-07T13:43:58;0.75;;;0.75;;
10761;SDS011;5433;50.862;4.320;2023-08-07T13:46:25;1.13;;;1.00;;
10761;SDS011;5433;50.862;4.320;2023-08-07T13:48:51;0.85;;;0.85;;
10761;SDS011;5433;50.862;4.320;2023-08-07T13:51:17;1.42;;;0.90;;
10761;SDS011;5433;50.862;4.320;2023-08-07T13:56:32;1.83;;;1.02;;
10761;SDS011;5433;50.862;4.320;2023-08-07T13:58:59;2.15;;;1.00;;
10761;SDS011;5433;50.862;4.320;2023-08-07T14:01:27;1.13;;;0.80;;
10761;SDS011;5433;50.862;4.320;2023-08-07T14:06:41;1.42;;;0.90;;
10761;SDS011;5433;50.862;4.320;2023-08-07T14:09:09;0.95;;;0.73;;
10761;SDS011;5433;50.862;4.320;2023-08-07T14:11:36;1.02;;;0.75;;
10761;SDS011;5433;50.862;4.320;2023-08-07T14:14:02;2.28;;;0.93;;
10761;SDS011;5433;50.862;4.320;2023-08-07T14:16:28;0.80;;;0.80;;
10761;SDS011;5433;50.862;4.320;2023-08-07T14:18:54;0.93;;;0.80;;
10761;SDS011;5433;50.862;4.320;2023-08-07T14:21:22;1.95;;;0.73;;
10761;SDS011;5433;50.862;4.320;2023-08-07T14:23:48;0.80;;;0.80;;
10761;SDS011;5433;50.862;4.320;2023-08-07T14:26:15;0.73;;;0.73;;
10761;SDS011;5433;50.862;4.320;2023-08-07T14:28:42;0.90;;;0.90;;
10761;SDS011;5433;50.862;4.320;2023-08-07T14:31:09;1.83;;;0.98;;
10761;SDS011;5433;50.862;4.320;2023-08-07T14:33:35;1.58;;;0.90;;
10761;SDS011;5433;50.862;4.320;2023-08-07T14:36:03;1.35;;;0.90;;
10761;SDS011;5433;50.862;4.320;2023-08-07T14:38:29;2.22;;;0.90;;
10761;SDS011;5433;50.862;4.320;2023-08-07T14:40:55;1.35;;;1.00;;
10761;SDS011;5433;50.862;4.320;2023-08-07T14:43:24;1.25;;;0.80;;
10761;SDS011;5433;50.862;4.320;2023-08-07T14:45:50;1.17;;;0.80;;
10761;SDS011;5433;50.862;4.320;2023-08-07T14:48:17;2.25;;;1.00;;
10761;SDS011;5433;50.862;4.320;2023-08-07T14:50:43;1.67;;;0.82;;
10761;SDS011;5433;50.862;4.320;2023-08-07T14:53:09;1.55;;;0.90;;
10761;SDS011;5433;50.862;4.320;2023-08-07T14:55:35;1.40;;;1.00;;
10761;SDS011;5433;50.862;4.320;2023-08-07T14:58:01;1.17;;;0.80;;
10761;SDS011;5433;50.862;4.320;2023-08-07T15:00:27;1.52;;;0.80;;
10761;SDS011;5433;50.862;4.320;2023-08-07T15:02:53;2.03;;;0.80;;
10761;SDS011;5433;50.862;4.320;2023-08-07T15:05:20;1.15;;;0.70;;
10761;SDS011;5433;50.862;4.320;2023-08-07T15:07:46;2.58;;;1.30;;
10761;SDS011;5433;50.862;4.320;2023-08-07T15:10:12;2.20;;;1.10;;
10761;SDS011;5433;50.862;4.320;2023-08-07T15:12:38;1.15;;;0.80;;
10761;SDS011;5433;50.862;4.320;2023-08-07T15:15:04;2.33;;;1.20;;
10761;SDS011;5433;50.862;4.320;2023-08-07T15:17:31;1.10;;;1.00;;
10761;SDS011;5433;50.862;4.320;2023-08-07T15:19:57;0.93;;;0.80;;
10761;SDS011;5433;50.862;4.320;2023-08-07T15:22:23;2.08;;;1.00;;
10761;SDS011;5433;50.862;4.320;2023-08-07T15:24:49;2.22;;;1.02;;
10761;SDS011;5433;50.862;4.320;2023-08-07T15:27:15;1.10;;;1.00;;